Time;durP1;ratioP1;P1;durP2;ratioP2;P2;SDS_P1;SDS_P2;PMS_P1;PMS_P2;Temp;Humidity;BMP_temperature;BMP_pressure;BME280_temperature;BME280_humidity;BME280_pressure;Samples;Min_cycle;Max_cycle;Signal;HPM_P1;HPM_P2
2022/12/25 00:07:47;;;;;;;1.57;0.97;;;;;;;;;;20962445;28;20233;-70
2022/12/25 00:17:49;;;;;;;3.13;1.60;;;;;;;;;;20929717;28;20209;-70
2022/12/25 00:27:51;;;;;;;1.57;0.93;;;;;;;;;;20944991;28;20221;-70
2022/12/25 00:37:53;;;;;;;2.50;1.50;;;;;;;;;;20944517;28;20209;-70
2022/12/25 00:47:55;;;;;;;3.40;1.33;;;;;;;;;;20942965;28;20221;-70
2022/12/25 00:57:58;;;;;;;3.80;0.90;;;;;;;;;;20959350;28;20745;-70
2022/12/25 01:08:00;;;;;;;2.43;1.27;;;;;;;;;;20941295;28;20244;-70
2022/12/25 01:18:02;;;;;;;3.13;0.90;;;;;;;;;;20956869;28;20225;-70
2022/12/25 01:28:04;;;;;;;1.80;0.87;;;;;;;;;;20946393;28;20247;-71
2022/12/25 01:38:06;;;;;;;1.37;0.80;;;;;;;;;;20972069;28;20288;-70
2022/12/25 01:48:13;;;;;;;1.07;0.90;;;9.60;99.90;;;;;;20939399;28;20232;-70
2022/12/25 01:58:16;;;;;;;0.70;0.50;;;9.70;99.90;;;;;;20986103;28;20212;-70
2022/12/25 02:08:20;;;;;;;3.17;0.80;;;9.50;99.90;;;;;;21020375;28;20216;-70
2022/12/25 02:18:29;;;;;;;1.23;0.80;;;;;;;;;;21052822;28;20697;-70
2022/12/25 02:28:43;;;;;;;1.13;0.63;;;;;;;;;;21067923;28;20564;-69
2022/12/25 04:43:08;;;;;;;1.27;0.70;;;;;;;;;;20880011;28;20225;-66
2022/12/25 04:53:10;;;;;;;2.37;1.07;;;;;;;;;;20929170;28;20225;-67
2022/12/25 05:03:11;;;;;;;1.30;1.00;;;;;;;;;;20941993;28;20644;-66
2022/12/25 05:13:14;;;;;;;1.00;0.53;;;;;;;;;;20956760;28;20225;-66
2022/12/25 05:23:16;;;;;;;1.60;0.67;;;;;;;;;;20940526;28;20669;-66
2022/12/25 05:33:18;;;;;;;1.17;0.70;;;;;;;;;;20939050;28;20225;-66
2022/12/25 05:43:19;;;;;;;1.10;0.63;;;;;;;;;;20955048;28;20221;-66
2022/12/25 05:53:22;;;;;;;1.67;0.80;;;;;;;;;;20953411;28;20711;-66
2022/12/25 06:03:24;;;;;;;2.83;1.30;;;;;;;;;;20936044;28;20225;-66
2022/12/25 06:13:26;;;;;;;1.27;0.67;;;;;;;;;;20935542;28;20221;-66
2022/12/25 06:23:27;;;;;;;1.87;1.10;;;;;;;;;;20929287;28;20262;-66
2022/12/25 06:33:30;;;;;;;1.20;0.60;;;;;;;;;;20928508;28;20370;-66
2022/12/25 06:43:31;;;;;;;2.43;0.57;;;;;;;;;;20934910;28;20769;-66
2022/12/25 06:53:34;;;;;;;1.27;0.70;;;;;;;;;;20966641;28;20593;-66
2022/12/25 07:03:36;;;;;;;0.97;0.80;;;;;;;;;;20933812;28;20209;-66
2022/12/25 07:13:38;;;;;;;1.30;0.50;;;;;;;;;;20961597;28;20232;-66
2022/12/25 07:23:40;;;;;;;2.77;1.23;;;;;;;;;;20886733;28;20206;-66
2022/12/25 07:33:42;;;;;;;1.10;0.70;;;;;;;;;;20928238;28;20644;-67
2022/12/25 07:43:44;;;;;;;1.33;0.83;;;;;;;;;;20948324;28;20235;-66
2022/12/25 07:53:46;;;;;;;0.97;0.70;;;;;;;;;;20944010;28;20275;-67
2022/12/25 08:03:51;;;;;;;0.80;0.60;;;;;;;;;;20881967;28;20271;-67
2022/12/25 08:13:54;;;;;;;0.90;0.70;;;;;;;;;;20897217;28;20222;-67
2022/12/25 08:23:56;;;;;;;0.87;0.60;;;;;;;;;;20933596;28;20271;-67
2022/12/25 08:33:58;;;;;;;1.00;0.70;;;;;;;;;;21013475;28;20222;-66
2022/12/25 08:44:01;;;;;;;3.33;1.07;;;9.40;99.90;;;;;;20974406;28;20317;-66
2022/12/25 08:54:03;;;;;;;0.40;0.40;;;;;;;;;;20951255;28;20696;-67
2022/12/25 09:04:06;;;;;;;0.83;0.40;;;;;;;;;;20959314;28;20229;-67
2022/12/25 09:14:08;;;;;;;0.43;0.33;;;;;;;;;;20957472;28;20708;-66
2022/12/25 09:24:10;;;;;;;0.93;0.60;;;;;;;;;;20974005;28;20229;-67
2022/12/25 09:34:13;;;;;;;0.60;0.40;;;;;;;;;;20955407;28;20567;-67
2022/12/25 09:44:41;;;;;;;0.60;0.43;;;9.80;99.90;;;;;;20937910;28;20221;-67
2022/12/25 09:54:54;;;;;;;0.60;0.60;;;;;;;;;;20951687;22;20224;-71
2022/12/25 10:05:22;;;;;;;1.17;0.60;;;9.90;99.90;;;;;;20953007;28;20255;-71
2022/12/25 10:15:45;;;;;;;0.97;0.57;;;;;;;;;;20934520;28;20298;-71
2022/12/25 10:25:48;;;;;;;0.80;0.63;;;;;;;;;;20967699;28;20270;-70
2022/12/25 10:35:50;;;;;;;0.43;0.30;;;;;;;;;;20923482;28;20248;-72
2022/12/25 10:45:51;;;;;;;0.50;0.40;;;;;;;;;;20950508;28;20598;-71
2022/12/25 10:56:04;;;;;;;0.60;0.50;;;;;;;;;;20929192;28;20563;-70
2022/12/25 11:06:26;;;;;;;1.20;0.50;;;10.30;99.90;;;;;;20931445;28;20201;-71
2022/12/25 11:16:35;;;;;;;1.80;1.10;;;10.30;99.90;;;;;;20929064;28;20275;-71
2022/12/25 11:26:47;;;;;;;1.60;0.73;;;;;;;;;;20978203;28;20274;-71
2022/12/25 11:36:51;;;;;;;1.40;0.93;;;10.40;99.90;;;;;;20937267;28;20279;-71
2022/12/25 11:46:54;;;;;;;0.63;0.50;;;;;;;;;;20998661;28;20277;-71
2022/12/25 11:56:59;;;;;;;0.83;0.63;;;;;;;;;;20947041;28;20233;-71
2022/12/25 12:07:15;;;;;;;0.90;0.60;;;10.90;99.90;;;;;;20940441;28;20582;-71
2022/12/25 12:17:18;;;;;;;1.00;0.70;;;;;;;;;;20958945;28;20285;-71
2022/12/25 12:27:35;;;;;;;4.07;1.13;;;11.80;99.90;;;;;;20999440;28;20204;-71
2022/12/25 12:37:39;;;;;;;2.40;0.83;;;11.80;99.90;;;;;;20959011;28;20185;-71
2022/12/25 12:47:42;;;;;;;0.60;0.40;;;;;;;;;;20947715;28;20443;-71
2022/12/25 12:57:44;;;;;;;1.03;0.70;;;;;;;;;;21006139;28;20235;-71
2022/12/25 13:07:56;;;;;;;1.60;0.63;;;;;;;;;;21021967;28;20217;-71
2022/12/25 13:18:02;;;;;;;2.90;1.87;;;;;;;;;;21038061;28;20216;-71
2022/12/25 13:28:05;;;;;;;0.90;0.67;;;;;;;;;;21010820;28;20228;-70
2022/12/25 13:38:11;;;;;;;5.60;1.40;;;;;;;;;;21021054;28;20227;-70
2022/12/25 13:48:16;;;;;;;0.97;0.70;;;11.60;99.90;;;;;;21009449;28;20283;-70
2022/12/25 13:58:23;;;;;;;2.13;0.80;;;;;;;;;;20991576;28;20691;-71
2022/12/25 14:08:30;;;;;;;3.00;0.67;;;11.60;99.90;;;;;;21032944;28;20254;-70
2022/12/25 14:18:33;;;;;;;1.10;0.60;;;;;;;;;;21027077;28;20522;-71
2022/12/25 14:28:36;;;;;;;0.70;0.50;;;;;;;;;;20988700;28;20275;-70
2022/12/25 14:38:41;;;;;;;0.90;0.67;;;;;;;;;;21022659;28;20277;-71
2022/12/25 14:48:43;;;;;;;3.20;1.70;;;;;;;;;;21040192;28;20231;-70
2022/12/25 14:58:58;;;;;;;2.13;1.07;;;;;;;;;;21006699;28;20204;-70
2022/12/25 15:09:02;;;;;;;2.33;1.13;;;;;;;;;;20961928;28;20237;-70
2022/12/25 15:19:05;;;;;;;1.20;0.70;;;;;;;;;;20951787;28;20696;-70
2022/12/25 15:29:07;;;;;;;4.07;2.10;;;;;;;;;;20952068;28;20220;-70
2022/12/25 15:39:09;;;;;;;1.23;0.90;;;;;;;;;;20960906;28;20260;-71
2022/12/25 15:49:12;;;;;;;1.30;0.80;;;;;;;;;;20939794;28;20226;-70
2022/12/25 15:59:15;;;;;;;1.57;0.70;;;;;;;;;;21005242;28;20212;-71
2022/12/25 16:09:21;;;;;;;1.67;0.60;;;;;;;;;;21042217;28;20647;-71
2022/12/25 16:19:23;;;;;;;0.93;0.70;;;;;;;;;;20966691;23;20220;-67
2022/12/25 16:29:25;;;;;;;1.33;0.70;;;;;;;;;;20952952;28;20240;-67
2022/12/25 16:39:27;;;;;;;1.50;0.90;;;;;;;;;;20935983;28;20765;-67
2022/12/25 16:49:29;;;;;;;1.40;1.03;;;;;;;;;;20935264;28;20225;-68
2022/12/25 16:59:31;;;;;;;1.07;0.77;;;;;;;;;;20934924;28;20687;-68
2022/12/25 17:09:33;;;;;;;1.43;1.10;;;;;;;;;;20952439;28;20579;-68
2022/12/25 17:19:36;;;;;;;1.60;0.80;;;;;;;;;;20955300;28;20268;-67
2022/12/25 17:29:43;;;;;;;1.77;1.00;;;;;;;;;;20970690;28;20282;-68
2022/12/25 17:39:46;;;;;;;3.10;1.90;;;;;;;;;;20953109;28;20691;-67
2022/12/25 17:49:48;;;;;;;2.03;1.30;;;;;;;;;;20936753;28;20243;-68
2022/12/25 17:59:50;;;;;;;2.27;1.23;;;;;;;;;;20945433;28;20764;-68
2022/12/25 18:09:51;;;;;;;2.07;1.30;;;;;;;;;;20967265;28;20228;-68
2022/12/25 18:19:54;;;;;;;2.20;1.30;;;10.50;99.90;;;;;;21049796;28;20232;-67
2022/12/25 18:29:57;;;;;;;1.50;1.07;;;;;;;;;;21021350;28;20691;-67
2022/12/25 18:39:59;;;;;;;2.07;1.20;;;;;;;;;;21050298;28;20251;-67
2022/12/25 18:50:01;;;;;;;2.53;1.50;;;;;;;;;;21048473;28;20232;-67
2022/12/25 19:00:04;;;;;;;1.40;0.87;;;10.40;99.90;;;;;;21015598;28;20270;-66
2022/12/25 19:10:09;;;;;;;1.27;0.87;;;10.40;99.90;;;;;;21038427;28;20228;-68
2022/12/25 19:20:11;;;;;;;1.73;0.90;;;;;;;;;;21048003;28;20212;-67
2022/12/25 19:30:13;;;;;;;1.50;0.80;;;;;;;;;;21046582;28;20220;-67
2022/12/25 19:40:15;;;;;;;0.97;0.70;;;;;;;;;;21029799;28;20238;-67
2022/12/25 19:50:17;;;;;;;1.37;1.10;;;;;;;;;;21044675;28;20233;-67
2022/12/25 20:00:19;;;;;;;1.67;0.63;;;;;;;;;;21029204;28;20289;-67
2022/12/25 20:10:22;;;;;;;1.40;1.03;;;;;;;;;;21004997;28;20277;-67
2022/12/25 20:20:24;;;;;;;2.63;0.80;;;;;;;;;;21039157;28;20212;-67
2022/12/25 20:30:26;;;;;;;1.33;0.90;;;;;;;;;;20998738;28;20285;-67
2022/12/25 20:40:29;;;;;;;2.13;0.90;;;;;;;;;;20972339;28;20221;-67
2022/12/25 20:50:31;;;;;;;1.40;0.90;;;;;;;;;;20961392;28;20584;-67
2022/12/25 21:00:33;;;;;;;1.70;0.90;;;;;;;;;;21010757;28;20212;-66
2022/12/25 21:10:36;;;;;;;1.40;0.90;;;;;;;;;;20974692;28;20758;-67
2022/12/25 21:20:38;;;;;;;1.40;0.90;;;;;;;;;;20935797;28;20271;-67
2022/12/25 21:30:40;;;;;;;2.30;1.30;;;;;;;;;;20951303;28;20241;-67
2022/12/25 21:40:42;;;;;;;2.80;0.90;;;;;;;;;;20952263;28;20564;-67
2022/12/25 22:01:04;;;;;;;1.30;0.80;;;;;;;;;;20939395;28;20745;-67
2022/12/25 22:14:48;;;;;;;0.87;0.47;;;;;;;;;;20935991;28;20285;-67
2022/12/25 22:21:32;;;;;;;0.80;0.60;;;;;;;;;;20961183;22;20241;-69
2022/12/25 22:31:33;;;;;;;1.00;0.50;;;;;;;;;;21046637;28;20261;-69
2022/12/25 22:41:35;;;;;;;1.20;0.70;;;;;;;;;;21067414;28;20208;-69
2022/12/25 22:51:37;;;;;;;1.00;0.80;;;;;;;;;;21067156;28;20258;-69
2022/12/25 23:01:39;;;;;;;0.53;0.50;;;;;;;;;;21058934;28;20261;-69
2022/12/25 23:11:41;;;;;;;0.87;0.60;;;;;;;;;;21046963;28;20290;-69
2022/12/25 23:32:24;;;;;;;2.53;0.70;;;;;;;;;;20965853;28;20297;-69
2022/12/25 23:42:25;;;;;;;1.53;0.60;;;;;;;;;;21065489;28;20250;-69
2022/12/25 23:52:27;;;;;;;0.90;0.60;;;;;;;;;;21064855;28;20236;-69
